sensor_id;sensor_type;location;lat;lon;timestamp;P1;durP1;ratioP1;P2;durP2;ratioP2
47259;SDS011;32999;52.412;4.890;2023-04-06T00:07:58;14.75;;;7.32;;
47259;SDS011;32999;52.412;4.890;2023-04-06T00:13:42;13.70;;;7.18;;
47259;SDS011;32999;52.412;4.890;2023-04-06T00:19:06;14.38;;;5.88;;
47259;SDS011;32999;52.412;4.890;2023-04-06T00:24:47;12.30;;;6.45;;
47259;SDS011;32999;52.412;4.890;2023-04-06T00:30:26;12.00;;;6.13;;
47259;SDS011;32999;52.412;4.890;2023-04-06T00:42:13;11.38;;;6.63;;
47259;SDS011;32999;52.412;4.890;2023-04-06T00:53:33;20.38;;;7.80;;
47259;SDS011;32999;52.412;4.890;2023-04-06T01:05:16;12.00;;;7.68;;
47259;SDS011;32999;52.412;4.890;2023-04-06T01:10:45;9.48;;;5.40;;
47259;SDS011;32999;52.412;4.890;2023-04-06T01:15:58;8.43;;;5.28;;
47259;SDS011;32999;52.412;4.890;2023-04-06T01:21:10;14.25;;;6.03;;
47259;SDS011;32999;52.412;4.890;2023-04-06T01:31:55;12.63;;;6.70;;
47259;SDS011;32999;52.412;4.890;2023-04-06T01:37:09;12.50;;;5.63;;
47259;SDS011;32999;52.412;4.890;2023-04-06T01:42:19;11.43;;;5.57;;
47259;SDS011;32999;52.412;4.890;2023-04-06T01:47:35;14.18;;;5.55;;
47259;SDS011;32999;52.412;4.890;2023-04-06T02:03:05;11.27;;;6.15;;
47259;SDS011;32999;52.412;4.890;2023-04-06T02:09:06;11.50;;;5.90;;
47259;SDS011;32999;52.412;4.890;2023-04-06T02:14:27;8.77;;;4.97;;
47259;SDS011;32999;52.412;4.890;2023-04-06T02:19:32;10.20;;;5.23;;
47259;SDS011;32999;52.412;4.890;2023-04-06T02:24:35;9.60;;;5.13;;
47259;SDS011;32999;52.412;4.890;2023-04-06T02:29:44;9.65;;;5.63;;
47259;SDS011;32999;52.412;4.890;2023-04-06T02:34:49;13.10;;;5.97;;
47259;SDS011;32999;52.412;4.890;2023-04-06T02:39:55;12.93;;;4.38;;
47259;SDS011;32999;52.412;4.890;2023-04-06T03:03:27;12.50;;;5.38;;
47259;SDS011;32999;52.412;4.890;2023-04-06T03:09:12;13.10;;;5.85;;
47259;SDS011;32999;52.412;4.890;2023-04-06T03:14:32;9.70;;;5.55;;
47259;SDS011;32999;52.412;4.890;2023-04-06T03:20:28;10.65;;;5.68;;
47259;SDS011;32999;52.412;4.890;2023-04-06T04:32:51;14.50;;;6.63;;
47259;SDS011;32999;52.412;4.890;2023-04-06T04:57:01;15.15;;;7.00;;
47259;SDS011;32999;52.412;4.890;2023-04-06T05:02:36;17.05;;;8.27;;
47259;SDS011;32999;52.412;4.890;2023-04-06T05:08:23;15.52;;;7.40;;
47259;SDS011;32999;52.412;4.890;2023-04-06T05:14:11;15.00;;;7.97;;
47259;SDS011;32999;52.412;4.890;2023-04-06T05:20:04;14.52;;;6.60;;
47259;SDS011;32999;52.412;4.890;2023-04-06T05:25:40;15.95;;;7.65;;
47259;SDS011;32999;52.412;4.890;2023-04-06T05:37:18;16.50;;;8.00;;
47259;SDS011;32999;52.412;4.890;2023-04-06T05:42:30;15.18;;;7.80;;
47259;SDS011;32999;52.412;4.890;2023-04-06T05:47:54;18.52;;;8.90;;
47259;SDS011;32999;52.412;4.890;2023-04-06T05:58:03;19.23;;;9.68;;
47259;SDS011;32999;52.412;4.890;2023-04-06T06:03:05;15.80;;;8.15;;
47259;SDS011;32999;52.412;4.890;2023-04-06T06:08:12;17.88;;;8.73;;
47259;SDS011;32999;52.412;4.890;2023-04-06T06:13:14;19.10;;;9.52;;
47259;SDS011;32999;52.412;4.890;2023-04-06T06:48:48;21.25;;;12.57;;
47259;SDS011;32999;52.412;4.890;2023-04-06T07:00:17;23.10;;;11.10;;
47259;SDS011;32999;52.412;4.890;2023-04-06T07:05:30;27.33;;;11.77;;
47259;SDS011;32999;52.412;4.890;2023-04-06T07:10:34;22.23;;;11.40;;
47259;SDS011;32999;52.412;4.890;2023-04-06T07:15:39;26.58;;;13.40;;
47259;SDS011;32999;52.412;4.890;2023-04-06T07:38:28;25.95;;;10.95;;
47259;SDS011;32999;52.412;4.890;2023-04-06T07:43:39;27.20;;;11.38;;
47259;SDS011;32999;52.412;4.890;2023-04-06T07:54:43;21.50;;;12.45;;
47259;SDS011;32999;52.412;4.890;2023-04-06T07:59:46;20.77;;;11.40;;
47259;SDS011;32999;52.412;4.890;2023-04-06T08:04:51;30.50;;;13.50;;
47259;SDS011;32999;52.412;4.890;2023-04-06T08:09:54;24.80;;;13.93;;
47259;SDS011;32999;52.412;4.890;2023-04-06T08:14:57;25.15;;;13.10;;
47259;SDS011;32999;52.412;4.890;2023-04-06T08:19:59;24.05;;;12.85;;
47259;SDS011;32999;52.412;4.890;2023-04-06T08:25:05;24.00;;;12.95;;
47259;SDS011;32999;52.412;4.890;2023-04-06T08:30:07;21.70;;;11.70;;
47259;SDS011;32999;52.412;4.890;2023-04-06T08:35:11;21.23;;;11.90;;
47259;SDS011;32999;52.412;4.890;2023-04-06T08:40:36;20.70;;;12.80;;
47259;SDS011;32999;52.412;4.890;2023-04-06T08:45:41;26.05;;;14.02;;
47259;SDS011;32999;52.412;4.890;2023-04-06T08:50:48;22.95;;;11.40;;
47259;SDS011;32999;52.412;4.890;2023-04-06T08:55:56;24.05;;;11.43;;
47259;SDS011;32999;52.412;4.890;2023-04-06T09:00:59;20.05;;;11.70;;
47259;SDS011;32999;52.412;4.890;2023-04-06T09:06:03;20.42;;;11.25;;
47259;SDS011;32999;52.412;4.890;2023-04-06T09:11:09;23.20;;;11.52;;
47259;SDS011;32999;52.412;4.890;2023-04-06T09:16:12;26.67;;;12.32;;
47259;SDS011;32999;52.412;4.890;2023-04-06T09:21:16;21.38;;;12.88;;
47259;SDS011;32999;52.412;4.890;2023-04-06T09:26:23;29.00;;;12.48;;
47259;SDS011;32999;52.412;4.890;2023-04-06T09:31:33;23.48;;;12.50;;
47259;SDS011;32999;52.412;4.890;2023-04-06T09:36:36;24.77;;;13.88;;
47259;SDS011;32999;52.412;4.890;2023-04-06T09:47:10;24.25;;;12.23;;
47259;SDS011;32999;52.412;4.890;2023-04-06T09:52:15;22.35;;;12.77;;
47259;SDS011;32999;52.412;4.890;2023-04-06T09:57:52;22.42;;;12.73;;
47259;SDS011;32999;52.412;4.890;2023-04-06T10:03:14;25.95;;;13.23;;
47259;SDS011;32999;52.412;4.890;2023-04-06T10:08:28;26.75;;;14.48;;
47259;SDS011;32999;52.412;4.890;2023-04-06T10:13:32;23.17;;;13.13;;
47259;SDS011;32999;52.412;4.890;2023-04-06T10:18:38;21.70;;;11.65;;
47259;SDS011;32999;52.412;4.890;2023-04-06T10:28:50;22.50;;;12.77;;
47259;SDS011;32999;52.412;4.890;2023-04-06T10:33:55;21.75;;;12.13;;
47259;SDS011;32999;52.412;4.890;2023-04-06T10:45:07;21.88;;;11.23;;
47259;SDS011;32999;52.412;4.890;2023-04-06T10:50:20;21.27;;;10.13;;
47259;SDS011;32999;52.412;4.890;2023-04-06T10:55:26;19.17;;;9.48;;
47259;SDS011;32999;52.412;4.890;2023-04-06T11:06:55;18.77;;;10.02;;
47259;SDS011;32999;52.412;4.890;2023-04-06T11:18:31;15.98;;;8.95;;
47259;SDS011;32999;52.412;4.890;2023-04-06T11:24:32;26.70;;;10.50;;
47259;SDS011;32999;52.412;4.890;2023-04-06T11:29:34;13.65;;;7.88;;
47259;SDS011;32999;52.412;4.890;2023-04-06T11:34:43;15.35;;;8.88;;
47259;SDS011;32999;52.412;4.890;2023-04-06T11:40:22;14.23;;;8.57;;
47259;SDS011;32999;52.412;4.890;2023-04-06T11:45:39;11.88;;;6.75;;
47259;SDS011;32999;52.412;4.890;2023-04-06T11:50:47;11.73;;;8.05;;
47259;SDS011;32999;52.412;4.890;2023-04-06T12:56:19;9.82;;;6.40;;
47259;SDS011;32999;52.412;4.890;2023-04-06T13:44:04;15.93;;;7.60;;
47259;SDS011;32999;52.412;4.890;2023-04-06T14:31:12;15.25;;;9.07;;
47259;SDS011;32999;52.412;4.890;2023-04-06T15:25:09;17.83;;;9.68;;
47259;SDS011;32999;52.412;4.890;2023-04-06T15:55:02;13.40;;;7.90;;
47259;SDS011;32999;52.412;4.890;2023-04-06T16:00:24;11.57;;;7.18;;
47259;SDS011;32999;52.412;4.890;2023-04-06T16:06:17;12.00;;;5.60;;
47259;SDS011;32999;52.412;4.890;2023-04-06T16:23:16;11.82;;;7.70;;
47259;SDS011;32999;52.412;4.890;2023-04-06T16:45:30;11.13;;;7.00;;
47259;SDS011;32999;52.412;4.890;2023-04-06T16:50:41;11.63;;;7.53;;
47259;SDS011;32999;52.412;4.890;2023-04-06T18:25:56;21.02;;;11.35;;
47259;SDS011;32999;52.412;4.890;2023-04-06T18:30:58;17.85;;;10.98;;
47259;SDS011;32999;52.412;4.890;2023-04-06T18:36:01;24.20;;;12.50;;
47259;SDS011;32999;52.412;4.890;2023-04-06T18:41:14;19.23;;;11.95;;
47259;SDS011;32999;52.412;4.890;2023-04-06T18:47:22;22.77;;;12.77;;
47259;SDS011;32999;52.412;4.890;2023-04-06T18:52:45;19.48;;;12.07;;
47259;SDS011;32999;52.412;4.890;2023-04-06T18:57:49;22.35;;;12.55;;
47259;SDS011;32999;52.412;4.890;2023-04-06T19:26:57;23.02;;;12.40;;
47259;SDS011;32999;52.412;4.890;2023-04-06T19:31:58;22.13;;;12.68;;
47259;SDS011;32999;52.412;4.890;2023-04-06T19:37:00;23.10;;;13.60;;
47259;SDS011;32999;52.412;4.890;2023-04-06T19:42:03;21.83;;;13.35;;
47259;SDS011;32999;52.412;4.890;2023-04-06T19:47:05;30.58;;;13.35;;
47259;SDS011;32999;52.412;4.890;2023-04-06T19:52:09;30.90;;;14.38;;
47259;SDS011;32999;52.412;4.890;2023-04-06T19:57:14;24.85;;;13.90;;
47259;SDS011;32999;52.412;4.890;2023-04-06T20:02:16;31.55;;;16.40;;
47259;SDS011;32999;52.412;4.890;2023-04-06T20:07:18;29.77;;;14.20;;
47259;SDS011;32999;52.412;4.890;2023-04-06T20:12:21;20.80;;;10.65;;
47259;SDS011;32999;52.412;4.890;2023-04-06T20:17:23;19.08;;;8.57;;
47259;SDS011;32999;52.412;4.890;2023-04-06T20:22:25;18.38;;;7.70;;
47259;SDS011;32999;52.412;4.890;2023-04-06T20:27:28;16.05;;;7.15;;
47259;SDS011;32999;52.412;4.890;2023-04-06T20:32:29;13.25;;;5.82;;
47259;SDS011;32999;52.412;4.890;2023-04-06T20:37:33;12.52;;;5.13;;
47259;SDS011;32999;52.412;4.890;2023-04-06T20:42:37;12.20;;;5.13;;
47259;SDS011;32999;52.412;4.890;2023-04-06T20:47:39;12.13;;;4.05;;
47259;SDS011;32999;52.412;4.890;2023-04-06T20:52:41;14.32;;;4.90;;
47259;SDS011;32999;52.412;4.890;2023-04-06T20:57:44;9.20;;;4.53;;
47259;SDS011;32999;52.412;4.890;2023-04-06T21:02:46;12.60;;;5.10;;
47259;SDS011;32999;52.412;4.890;2023-04-06T21:07:47;14.43;;;5.03;;
47259;SDS011;32999;52.412;4.890;2023-04-06T21:12:51;16.33;;;5.00;;
47259;SDS011;32999;52.412;4.890;2023-04-06T21:17:52;10.80;;;5.20;;
47259;SDS011;32999;52.412;4.890;2023-04-06T21:22:54;18.63;;;6.70;;
47259;SDS011;32999;52.412;4.890;2023-04-06T21:27:57;15.77;;;5.75;;
47259;SDS011;32999;52.412;4.890;2023-04-06T21:33:00;9.35;;;5.13;;
47259;SDS011;32999;52.412;4.890;2023-04-06T21:38:01;24.52;;;6.70;;
47259;SDS011;32999;52.412;4.890;2023-04-06T21:43:04;21.65;;;5.38;;
47259;SDS011;32999;52.412;4.890;2023-04-06T21:48:06;13.65;;;6.38;;
47259;SDS011;32999;52.412;4.890;2023-04-06T21:53:08;15.77;;;6.03;;
47259;SDS011;32999;52.412;4.890;2023-04-06T21:58:12;10.00;;;3.90;;
47259;SDS011;32999;52.412;4.890;2023-04-06T22:03:15;7.47;;;2.70;;
47259;SDS011;32999;52.412;4.890;2023-04-06T22:08:18;11.68;;;3.30;;
47259;SDS011;32999;52.412;4.890;2023-04-06T22:13:22;6.53;;;3.13;;
47259;SDS011;32999;52.412;4.890;2023-04-06T22:18:25;13.07;;;3.75;;
47259;SDS011;32999;52.412;4.890;2023-04-06T22:23:27;9.82;;;3.70;;
47259;SDS011;32999;52.412;4.890;2023-04-06T22:28:32;10.60;;;4.40;;
47259;SDS011;32999;52.412;4.890;2023-04-06T22:33:33;12.32;;;3.42;;
47259;SDS011;32999;52.412;4.890;2023-04-06T22:38:35;5.60;;;2.88;;
47259;SDS011;32999;52.412;4.890;2023-04-06T22:43:38;5.53;;;1.90;;
47259;SDS011;32999;52.412;4.890;2023-04-06T22:48:40;4.63;;;2.47;;
47259;SDS011;32999;52.412;4.890;2023-04-06T22:53:42;6.05;;;2.08;;
47259;SDS011;32999;52.412;4.890;2023-04-06T22:58:45;7.72;;;2.30;;
47259;SDS011;32999;52.412;4.890;2023-04-06T23:03:47;6.25;;;2.97;;
47259;SDS011;32999;52.412;4.890;2023-04-06T23:08:48;8.98;;;3.40;;
47259;SDS011;32999;52.412;4.890;2023-04-06T23:13:51;6.07;;;3.00;;
47259;SDS011;32999;52.412;4.890;2023-04-06T23:18:53;10.05;;;3.72;;
47259;SDS011;32999;52.412;4.890;2023-04-06T23:23:55;11.63;;;4.65;;
47259;SDS011;32999;52.412;4.890;2023-04-06T23:28:58;11.15;;;5.22;;
47259;SDS011;32999;52.412;4.890;2023-04-06T23:34:00;18.80;;;5.97;;
47259;SDS011;32999;52.412;4.890;2023-04-06T23:39:01;13.68;;;4.78;;
47259;SDS011;32999;52.412;4.890;2023-04-06T23:44:05;18.40;;;6.15;;
47259;SDS011;32999;52.412;4.890;2023-04-06T23:49:07;17.60;;;6.30;;
47259;SDS011;32999;52.412;4.890;2023-04-06T23:54:08;17.38;;;6.43;;
47259;SDS011;32999;52.412;4.890;2023-04-06T23:59:11;15.32;;;5.75;;
